Time;durP1;ratioP1;P1;durP2;ratioP2;P2;SDS_P1;SDS_P2;PMS_P1;PMS_P2;Temp;Humidity;BMP_temperature;BMP_pressure;BME280_temperature;BME280_humidity;BME280_pressure;Samples;Min_cycle;Max_cycle;Signal;HPM_P1;HPM_P2
2022/05/14 00:00:44;;;;;;;6.13;3.20;;;;;;;;;;2057292;28;20047;-48
2022/05/14 00:01:45;;;;;;;4.70;2.78;;;;;;;;;;2057221;28;20588;-47
2022/05/14 00:02:47;;;;;;;6.22;3.33;;;;;;;;;;2057201;28;20050;-47
2022/05/14 00:03:48;;;;;;;4.57;3.28;;;;;;;;;;2057237;28;20433;-47
2022/05/14 00:04:49;;;;;;;4.50;2.83;;;;;;;;;;2057178;28;20050;-48
2022/05/14 00:05:50;;;;;;;4.72;3.53;;;;;;;;;;2057228;28;20284;-46
2022/05/14 00:06:51;;;;;;;5.00;3.33;;;;;;;;;;2057207;28;20051;-47
2022/05/14 00:07:52;;;;;;;4.32;3.10;;;;;;;;;;2057209;28;20363;-46
2022/05/14 00:08:53;;;;;;;4.25;3.08;;;;;;;;;;2057218;28;20125;-47
2022/05/14 00:09:54;;;;;;;5.28;3.13;;;;;;;;;;2057052;28;20045;-47
2022/05/14 00:13:35;;;;;;;4.35;3.35;;;;;;;;;;2057149;28;20408;-47
2022/05/14 00:14:36;;;;;;;5.20;3.28;;;;;;;;;;2057323;28;20134;-47
2022/05/14 00:15:39;;;;;;;4.17;3.27;;;;;;;;;;2057326;28;20125;-48
2022/05/14 00:16:40;;;;;;;6.35;2.78;;;;;;;;;;2057137;28;20070;-47
2022/05/14 00:17:41;;;;;;;6.10;3.40;;;;;;;;;;2057247;28;20125;-46
2022/05/14 00:18:43;;;;;;;4.53;3.17;;;;;;;;;;2056919;28;20121;-47
2022/05/14 00:19:44;;;;;;;3.63;2.60;;;;;;;;;;2057288;28;20057;-46
2022/05/14 00:20:45;;;;;;;4.32;2.70;;;;;;;;;;2057163;28;20050;-47
2022/05/14 00:21:46;;;;;;;3.77;3.13;;;;;;;;;;2057062;28;20052;-47
2022/05/14 00:22:47;;;;;;;4.88;2.42;;;;;;;;;;2057165;28;20849;-47
2022/05/14 00:23:49;;;;;;;5.00;3.03;;;;;;;;;;2057282;28;20046;-47
2022/05/14 00:24:49;;;;;;;3.80;3.08;;;;;;;;;;2057132;28;20137;-47
2022/05/14 00:25:51;;;;;;;3.60;2.60;;;;;;;;;;2057342;28;20070;-47
2022/05/14 00:26:52;;;;;;;5.85;3.15;;;;;;;;;;2062753;28;20104;-47
2022/05/14 00:27:54;;;;;;;6.47;2.83;;;;;;;;;;2065150;28;20129;-47
2022/05/14 00:28:55;;;;;;;5.72;2.95;;;;;;;;;;2065118;28;20057;-47
2022/05/14 00:29:57;;;;;;;3.53;2.83;;;;;;;;;;2065011;28;20086;-47
2022/05/14 00:30:58;;;;;;;6.97;3.00;;;;;;;;;;2065126;28;20152;-46
2022/05/14 00:31:59;;;;;;;3.85;3.20;;;;;;;;;;2065244;28;20133;-47
2022/05/14 00:33:00;;;;;;;4.30;3.20;;;;;;;;;;2065192;28;20074;-47
2022/05/14 00:34:01;;;;;;;3.97;3.10;;;;;;;;;;2065074;28;20108;-47
2022/05/14 00:35:03;;;;;;;5.18;3.63;;;;;;;;;;2065310;28;20053;-47
2022/05/14 00:36:04;;;;;;;4.40;2.90;;;;;;;;;;2065265;28;20375;-47
2022/05/14 00:37:05;;;;;;;3.75;3.08;;;;;;;;;;2065057;28;20153;-46
2022/05/14 00:38:08;;;;;;;4.97;2.93;;;;;;;;;;2065204;28;20050;-46
2022/05/14 00:39:09;;;;;;;4.60;3.10;;;;;;;;;;2065048;28;20307;-47
2022/05/14 00:40:12;;;;;;;3.75;2.70;;;;;;;;;;2063967;28;20125;-47
2022/05/14 00:41:13;;;;;;;4.35;2.72;;;;;;;;;;2064983;28;20060;-47
2022/05/14 00:42:14;;;;;;;4.10;2.63;;;;;;;;;;2065171;28;20411;-48
2022/05/14 00:43:15;;;;;;;5.70;2.97;;;;;;;;;;2065110;28;20057;-46
2022/05/14 00:44:23;;;;;;;4.55;2.50;;;;;;;;;;2065186;28;20133;-47
2022/05/14 00:45:24;;;;;;;6.97;2.85;;;;;;;;;;2065082;28;20053;-47
2022/05/14 00:46:27;;;;;;;3.58;2.53;;;;;;;;;;2065228;28;20125;-47
2022/05/14 00:47:30;;;;;;;6.00;3.05;;;;;;;;;;2064953;28;20559;-47
2022/05/14 00:48:35;;;;;;;3.67;2.55;;;;;;;;;;2064933;28;20050;-47
2022/05/14 00:49:36;;;;;;;5.68;2.90;;;;;;;;;;2065041;28;20518;-48
2022/05/14 00:50:39;;;;;;;6.68;3.10;;;;;;;;;;2064960;28;20527;-47
2022/05/14 00:51:41;;;;;;;3.03;2.65;;;;;;;;;;2064945;28;20123;-46
2022/05/14 00:52:44;;;;;;;5.10;3.00;;;;;;;;;;2064948;28;20164;-47
2022/05/14 00:53:47;;;;;;;3.83;2.75;;;;;;;;;;2065010;28;20626;-47
2022/05/14 00:54:50;;;;;;;4.70;3.17;;;;;;;;;;2064962;28;20050;-47
2022/05/14 00:55:52;;;;;;;5.25;2.85;;;;;;;;;;2065250;28;20058;-46
2022/05/14 00:56:55;;;;;;;4.55;2.85;;;;;;;;;;2064989;28;20130;-47
2022/05/14 00:57:56;;;;;;;4.32;3.15;;;;;;;;;;2064981;28;20462;-47
2022/05/14 00:59:00;;;;;;;4.95;2.95;;;;;;;;;;2064867;28;20428;-47
2022/05/14 01:00:04;;;;;;;5.47;2.88;;;;;;;;;;2064969;28;20134;-46
2022/05/14 01:01:05;;;;;;;3.85;2.60;;;;;;;;;;2064946;28;20130;-46
2022/05/14 01:02:07;;;;;;;3.88;2.90;;;;;;;;;;2065048;28;20047;-47
2022/05/14 01:03:08;;;;;;;4.88;2.88;;;;;;;;;;2064895;28;20496;-48
2022/05/14 01:04:09;;;;;;;3.78;3.22;;;;;;;;;;2065041;28;20133;-59
2022/05/14 01:05:12;;;;;;;5.55;3.28;;;;;;;;;;2064998;28;20054;-59
2022/05/14 01:06:15;;;;;;;4.90;3.00;;;;;;;;;;2065017;28;20133;-46
2022/05/14 01:07:18;;;;;;;3.40;2.90;;;;;;;;;;2064883;28;20049;-46
2022/05/14 01:08:19;;;;;;;6.18;3.35;;;;;;;;;;2063217;28;20129;-47
2022/05/14 01:09:21;;;;;;;5.38;2.65;;;;;;;;;;2056753;28;20070;-47
2022/05/14 01:10:26;;;;;;;4.88;3.10;;;;;;;;;;2056965;28;20130;-46
2022/05/14 01:11:28;;;;;;;6.22;3.00;;;;;;;;;;2056879;28;20057;-47
2022/05/14 01:12:30;;;;;;;4.70;3.22;;;;;;;;;;2057109;28;20050;-47
2022/05/14 01:13:31;;;;;;;3.95;3.05;;;;;;;;;;2056826;28;20126;-46
2022/05/14 01:14:34;;;;;;;4.43;3.00;;;;;;;;;;2056708;28;20133;-47
2022/05/14 01:15:39;;;;;;;7.80;3.05;;;;;;;;;;2056732;28;20039;-48
2022/05/14 01:16:40;;;;;;;7.63;3.20;;;;;;;;;;2056850;28;20078;-47
2022/05/14 01:17:42;;;;;;;7.68;2.90;;;;;;;;;;2056776;28;20062;-47
2022/05/14 01:18:42;;;;;;;4.47;2.85;;;;;;;;;;2056604;28;20181;-47
2022/05/14 01:19:44;;;;;;;5.63;3.00;;;;;;;;;;2056801;28;20050;-47
2022/05/14 01:20:48;;;;;;;7.82;3.30;;;;;;;;;;2056697;28;20162;-47
2022/05/14 01:21:57;;;;;;;4.97;3.00;;;;;;;;;;2056719;28;20510;-47
2022/05/14 01:23:01;;;;;;;5.88;3.15;;;;;;;;;;2061047;28;20389;-47
2022/05/14 01:26:50;;;;;;;4.55;3.08;;;;;;;;;;2064708;28;20138;-47
2022/05/14 01:27:51;;;;;;;3.33;2.70;;;;;;;;;;2064898;28;20050;-48
2022/05/14 01:28:52;;;;;;;5.03;2.87;;;;;;;;;;2064668;28;20112;-47
2022/05/14 01:29:53;;;;;;;3.22;2.78;;;;;;;;;;2064753;28;20307;-47
2022/05/14 01:30:56;;;;;;;3.70;2.83;;;;;;;;;;2064881;28;20060;-47
2022/05/14 01:31:57;;;;;;;5.10;3.38;;;;;;;;;;2064869;28;20046;-47
2022/05/14 01:33:07;;;;;;;4.43;2.97;;;;;;;;;;2064706;28;20412;-46
2022/05/14 01:34:09;;;;;;;3.63;2.88;;;;;;;;;;2064928;28;20046;-59
2022/05/14 01:35:10;;;;;;;;;;;;;;;;;;2065165;28;20509;-59
2022/05/14 01:36:11;;;;;;;5.55;2.85;;;;;;;;;;2064751;28;19960;-59
2022/05/14 01:37:13;;;;;;;6.73;3.00;;;;;;;;;;2064839;28;20412;-59
2022/05/14 01:38:14;;;;;;;4.20;2.88;;;;;;;;;;2064822;28;20042;-59
2022/05/14 01:39:15;;;;;;;3.85;2.88;;;;;;;;;;2064736;28;20130;-59
2022/05/14 01:40:16;;;;;;;6.78;3.13;;;;;;;;;;2064680;28;20099;-59
2022/05/14 01:41:18;;;;;;;5.07;2.93;;;;;;;;;;2064778;28;20485;-59
2022/05/14 01:42:19;;;;;;;4.03;2.88;;;;;;;;;;2064659;28;20829;-59
2022/05/14 01:43:20;;;;;;;7.78;3.33;;;;;;;;;;2064807;28;20435;-59
2022/05/14 01:44:22;;;;;;;4.97;3.10;;;;;;;;;;2064514;28;20046;-59
2022/05/14 01:45:23;;;;;;;4.28;2.80;;;;;;;;;;2064746;28;20050;-59
2022/05/14 01:46:24;;;;;;;8.07;3.42;;;;;;;;;;2064593;28;20064;-59
2022/05/14 01:47:26;;;;;;;3.83;2.72;;;;;;;;;;2064752;28;20052;-59
2022/05/14 01:48:26;;;;;;;4.40;3.38;;;;;;;;;;2064658;28;20461;-59
2022/05/14 01:49:28;;;;;;;4.68;2.88;;;;;;;;;;2064649;28;20048;-59
2022/05/14 01:50:29;;;;;;;6.00;3.05;;;;;;;;;;2064713;28;20046;-59
2022/05/14 01:51:48;;;;;;;4.13;2.97;;;;;;;;;;2064111;28;20242;-59
2022/05/14 01:52:49;;;;;;;3.97;3.00;;;;;;;;;;2064542;28;20400;-59
2022/05/14 01:53:52;;;;;;;3.80;3.00;;;;;;;;;;2064711;28;20038;-59
2022/05/14 01:54:53;;;;;;;5.97;3.15;;;;;;;;;;2064717;28;20054;-59
2022/05/14 01:55:55;;;;;;;4.50;3.17;;;;;;;;;;2064600;28;20042;-59
2022/05/14 01:56:55;;;;;;;5.25;3.08;;;;;;;;;;2064565;28;20412;-59
2022/05/14 01:57:57;;;;;;;6.07;3.87;;;;;;;;;;2064613;28;20043;-59
2022/05/14 01:58:58;;;;;;;5.32;3.22;;;;;;;;;;2064518;28;20455;-59
2022/05/14 01:59:59;;;;;;;4.20;2.90;;;;;;;;;;2064662;28;20043;-59
2022/05/14 02:01:00;;;;;;;4.38;2.92;;;;;;;;;;2064661;28;20125;-59
2022/05/14 02:02:02;;;;;;;3.75;2.78;;;;;;;;;;2064676;28;20166;-59
2022/05/14 02:03:03;;;;;;;4.15;2.78;;;;;;;;;;2064607;28;20050;-60
2022/05/14 02:04:05;;;;;;;4.18;2.95;;;;;;;;;;2064477;28;20515;-59
2022/05/14 02:05:07;;;;;;;4.97;3.00;;;;;;;;;;2058694;28;20046;-59
2022/05/14 02:06:08;;;;;;;4.53;3.35;;;;;;;;;;2056558;28;20129;-59
2022/05/14 02:07:09;;;;;;;5.10;2.95;;;;;;;;;;2056489;28;20047;-59
2022/05/14 02:08:10;;;;;;;8.10;3.00;;;;;;;;;;2056614;28;20092;-59
2022/05/14 02:09:13;;;;;;;4.80;3.05;;;;;;;;;;2056359;28;20051;-59
2022/05/14 02:10:14;;;;;;;5.97;3.30;;;;;;;;;;2056504;28;20054;-59
2022/05/14 02:11:15;;;;;;;4.40;3.10;;;;;;;;;;2056484;28;20070;-59
2022/05/14 02:12:16;;;;;;;5.20;3.77;;;;;;;;;;2056550;28;20053;-60
2022/05/14 02:13:18;;;;;;;8.48;3.30;;;;;;;;;;2056514;28;20101;-59
2022/05/14 02:14:19;;;;;;;5.45;3.25;;;;;;;;;;2056501;28;20186;-59
2022/05/14 02:15:20;;;;;;;4.65;2.90;;;;;;;;;;2056529;28;20054;-59
2022/05/14 02:16:21;;;;;;;4.28;3.28;;;;;;;;;;2056633;28;20050;-59
2022/05/14 02:17:22;;;;;;;4.18;2.92;;;;;;;;;;2056580;28;20050;-59
2022/05/14 02:18:24;;;;;;;4.63;2.95;;;;;;;;;;2056199;28;20443;-59
2022/05/14 02:19:25;;;;;;;4.68;2.83;;;;;;;;;;2056330;28;20105;-59
2022/05/14 02:20:26;;;;;;;4.28;3.15;;;;;;;;;;2056431;28;20093;-59
2022/05/14 02:21:28;;;;;;;3.80;2.90;;;;;;;;;;2056532;28;20489;-59
2022/05/14 02:22:29;;;;;;;7.28;3.55;;;;;;;;;;2056529;28;20049;-59
2022/05/14 02:23:30;;;;;;;5.00;3.20;;;;;;;;;;2056541;28;20046;-59
2022/05/14 02:24:31;;;;;;;6.15;3.50;;;;;;;;;;2056421;28;20138;-59
2022/05/14 02:25:33;;;;;;;6.83;3.33;;;;;;;;;;2056529;28;20047;-59
2022/05/14 02:26:34;;;;;;;;;;;;;;;;;;2056802;28;20701;-59
2022/05/14 02:27:35;;;;;;;5.60;3.42;;;;;;;;;;2056378;28;19933;-59
2022/05/14 02:28:37;;;;;;;5.90;4.00;;;;;;;;;;2056436;28;20055;-59
2022/05/14 02:29:51;;;;;;;5.03;3.75;;;;;;;;;;2056296;28;20063;-59
2022/05/14 02:30:52;;;;;;;6.10;3.83;;;;;;;;;;2056526;28;20133;-59
2022/05/14 02:31:53;;;;;;;4.93;3.40;;;;;;;;;;2056388;28;20051;-59
2022/05/14 02:32:54;;;;;;;7.15;3.90;;;;;;;;;;2056464;28;20089;-60
2022/05/14 02:33:55;;;;;;;4.43;3.40;;;;;;;;;;2056653;28;20058;-60
2022/05/14 02:34:57;;;;;;;5.93;3.67;;;;;;;;;;2056462;28;20124;-59
2022/05/14 02:35:59;;;;;;;5.55;3.22;;;;;;;;;;2056435;28;20054;-59
2022/05/14 02:37:00;;;;;;;4.10;3.70;;;;;;;;;;2056446;28;20046;-61
2022/05/14 02:38:01;;;;;;;6.70;4.30;;;;;;;;;;2056463;28;20054;-59
2022/05/14 02:39:02;;;;;;;6.20;4.53;;;;;;;;;;2056404;28;20133;-60
2022/05/14 02:40:04;;;;;;;6.20;4.22;;;;;;;;;;2056486;28;20133;-61
2022/05/14 02:41:05;;;;;;;;;;;;;;;;;;2056703;28;20481;-60
2022/05/14 02:42:06;;;;;;;6.70;3.88;;;;;;;;;;2056436;28;19922;-61
2022/05/14 02:43:07;;;;;;;7.20;4.30;;;;;;;;;;2056316;28;20129;-61
2022/05/14 02:44:09;;;;;;;8.70;4.70;;;;;;;;;;2056297;28;20105;-61
2022/05/14 02:45:10;;;;;;;7.25;4.50;;;;;;;;;;2056238;28;20054;-61
2022/05/14 02:46:12;;;;;;;7.20;4.25;;;;;;;;;;2056406;28;20062;-60
2022/05/14 02:47:13;;;;;;;5.03;4.10;;;;;;;;;;2056355;28;20051;-60
2022/05/14 02:48:15;;;;;;;7.70;4.30;;;;;;;;;;2056409;28;20138;-60
2022/05/14 02:49:15;;;;;;;5.35;3.95;;;;;;;;;;2056173;28;20076;-60
2022/05/14 02:50:17;;;;;;;8.23;4.00;;;;;;;;;;2056383;28;20094;-60
2022/05/14 02:51:18;;;;;;;5.65;3.97;;;;;;;;;;2056400;28;20054;-60
2022/05/14 02:52:19;;;;;;;7.15;4.53;;;;;;;;;;2056470;28;20126;-60
2022/05/14 02:53:21;;;;;;;7.10;4.30;;;;;;;;;;2056422;28;20043;-61
2022/05/14 02:54:22;;;;;;;;;;;;;;;;;;2056617;28;20163;-61
2022/05/14 02:55:23;;;;;;;7.32;4.57;;;;;;;;;;2056485;28;19921;-60
2022/05/14 02:56:24;;;;;;;6.57;4.68;;;;;;;;;;2056262;28;20133;-60
2022/05/14 02:57:26;;;;;;;7.23;5.00;;;;;;;;;;2056188;28;20162;-60
2022/05/14 02:59:47;;;;;;;5.93;4.47;;;;;;;;;;2056255;28;20489;-60
2022/05/14 03:00:48;;;;;;;6.18;4.05;;;;;;;;;;2056108;28;20054;-60
2022/05/14 03:01:49;;;;;;;6.70;4.43;;;;;;;;;;2056321;28;20051;-61
2022/05/14 03:02:51;;;;;;;4.78;3.83;;;;;;;;;;2056247;28;20051;-61
2022/05/14 03:03:52;;;;;;;8.95;4.40;;;;;;;;;;2057147;28;20050;-60
2022/05/14 03:04:54;;;;;;;5.90;3.90;;;;;;;;;;2057579;28;20050;-61
2022/05/14 03:05:54;;;;;;;7.95;4.35;;;;;;;;;;2057656;28;20422;-61
2022/05/14 03:06:57;;;;;;;5.00;3.93;;;;;;;;;;2057560;28;20511;-60
2022/05/14 03:07:58;;;;;;;6.72;4.00;;;;;;;;;;2057543;28;20097;-61
2022/05/14 03:08:59;;;;;;;8.03;4.40;;;;;;;;;;2057648;28;20109;-60
2022/05/14 03:10:00;;;;;;;5.82;4.10;;;;;;;;;;2057477;28;20344;-61
2022/05/14 03:11:01;;;;;;;6.65;3.97;;;;;;;;;;2057600;28;20137;-61
2022/05/14 03:12:02;;;;;;;6.28;3.83;;;;;;;;;;2057488;28;20234;-61
2022/05/14 03:13:03;;;;;;;7.70;4.70;;;;;;;;;;2057668;28;20129;-61
2022/05/14 03:14:04;;;;;;;6.55;4.28;;;;;;;;;;2057510;28;20046;-59
2022/05/14 03:15:07;;;;;;;6.27;4.30;;;;;;;;;;2059270;28;20225;-61
2022/05/14 03:16:09;;;;;;;6.55;4.15;;;;;;;;;;2065461;28;20488;-61
2022/05/14 03:17:10;;;;;;;5.32;3.60;;;;;;;;;;2065942;28;20046;-61
2022/05/14 03:18:11;;;;;;;6.13;4.05;;;;;;;;;;2065621;28;20468;-61
2022/05/14 03:19:13;;;;;;;5.65;4.15;;;;;;;;;;2058579;28;20050;-48
2022/05/14 03:20:14;;;;;;;9.98;4.40;;;;;;;;;;2057603;28;20077;-48
2022/05/14 03:21:15;;;;;;;4.53;3.70;;;;;;;;;;2057621;28;20133;-49
2022/05/14 03:22:16;;;;;;;6.07;3.55;;;;;;;;;;2057554;28;20050;-48
2022/05/14 03:23:17;;;;;;;5.97;3.60;;;;;;;;;;2057450;28;20488;-48
2022/05/14 03:24:19;;;;;;;6.75;3.95;;;;;;;;;;2057620;28;20388;-61
2022/05/14 03:25:20;;;;;;;5.40;3.42;;;;;;;;;;2057536;28;20043;-61
2022/05/14 03:26:21;;;;;;;6.70;4.20;;;;;;;;;;2057440;28;20507;-61
2022/05/14 03:27:23;;;;;;;6.97;3.70;;;;;;;;;;2057557;28;20288;-61
2022/05/14 03:28:23;;;;;;;4.25;3.47;;;;;;;;;;2057493;28;20073;-60
2022/05/14 03:29:25;;;;;;;6.63;3.57;;;;;;;;;;2057420;28;20050;-60
2022/05/14 03:30:26;;;;;;;6.78;3.90;;;;;;;;;;2057400;28;20439;-61
2022/05/14 03:31:28;;;;;;;7.38;4.38;;;;;;;;;;2057427;28;20448;-61
2022/05/14 03:32:29;;;;;;;5.90;3.70;;;;;;;;;;2057438;28;20047;-60
2022/05/14 03:33:31;;;;;;;7.45;4.28;;;;;;;;;;2057468;28;20047;-60
2022/05/14 03:34:32;;;;;;;5.57;3.60;;;;;;;;;;2057475;28;20058;-60
2022/05/14 03:35:33;;;;;;;6.37;4.33;;;;;;;;;;2057605;28;20058;-60
2022/05/14 03:36:34;;;;;;;4.47;3.80;;;;;;;;;;2057470;28;20134;-60
2022/05/14 03:37:35;;;;;;;5.10;3.85;;;;;;;;;;2057446;28;20567;-60
2022/05/14 03:38:37;;;;;;;8.37;4.00;;;;;;;;;;2057446;28;20074;-60
2022/05/14 03:39:38;;;;;;;9.98;4.10;;;;;;;;;;2057478;28;20485;-60
2022/05/14 03:40:39;;;;;;;5.77;4.03;;;;;;;;;;2057631;28;20078;-60
2022/05/14 03:41:40;;;;;;;5.22;3.58;;;;;;;;;;2057571;28;20125;-60
2022/05/14 03:42:42;;;;;;;5.13;3.50;;;;;;;;;;2057496;28;20057;-60
2022/05/14 03:43:44;;;;;;;6.20;3.92;;;;;;;;;;2057333;28;20062;-60
2022/05/14 03:44:46;;;;;;;7.95;3.63;;;;;;;;;;2057363;28;20113;-60
2022/05/14 03:45:48;;;;;;;5.82;3.88;;;;;;;;;;2057296;28;20488;-60
2022/05/14 03:46:49;;;;;;;5.15;3.83;;;;;;;;;;2057717;28;20074;-60
2022/05/14 03:47:50;;;;;;;6.13;4.43;;;;;;;;;;2057316;28;20568;-60
2022/05/14 03:48:51;;;;;;;6.65;3.80;;;;;;;;;;2057452;28;20051;-60
2022/05/14 03:49:52;;;;;;;5.78;3.95;;;;;;;;;;2057332;28;20074;-60
2022/05/14 03:50:53;;;;;;;6.97;3.53;;;;;;;;;;2057489;28;20051;-60
2022/05/14 03:51:55;;;;;;;6.53;4.00;;;;;;;;;;2057356;28;20504;-60
2022/05/14 03:53:01;;;;;;;4.75;3.47;;;;;;;;;;2057338;28;20057;-60
2022/05/14 03:54:04;;;;;;;4.87;3.90;;;;;;;;;;2057336;28;20058;-60
2022/05/14 03:55:06;;;;;;;5.60;3.67;;;;;;;;;;2057235;28;20612;-60
2022/05/14 03:56:07;;;;;;;5.82;4.10;;;;;;;;;;2057259;28;20150;-60
2022/05/14 03:57:08;;;;;;;5.70;3.67;;;;;;;;;;2057390;28;20097;-48
2022/05/14 03:58:10;;;;;;;5.53;3.60;;;;;;;;;;2057337;28;20137;-50
2022/05/14 03:59:11;;;;;;;6.43;4.32;;;;;;;;;;2057209;28;20451;-50
2022/05/14 04:00:13;;;;;;;7.90;3.65;;;;;;;;;;2057213;28;20051;-49
2022/05/14 04:01:15;;;;;;;6.63;4.25;;;;;;;;;;2057289;28;20055;-49
2022/05/14 04:02:17;;;;;;;5.40;3.45;;;;;;;;;;2057601;28;20354;-48
2022/05/14 04:03:18;;;;;;;5.50;3.85;;;;;;;;;;2057187;28;20053;-48
2022/05/14 04:04:19;;;;;;;5.57;4.37;;;;;;;;;;2057119;28;20134;-47
2022/05/14 04:05:21;;;;;;;5.72;4.07;;;;;;;;;;2057377;28;20046;-48
2022/05/14 04:06:22;;;;;;;6.10;3.93;;;;;;;;;;2057169;28;20043;-48
2022/05/14 04:07:23;;;;;;;6.35;4.43;;;;;;;;;;2057325;28;20375;-48
2022/05/14 04:08:24;;;;;;;6.53;4.07;;;;;;;;;;2057279;28;20493;-48
2022/05/14 04:09:25;;;;;;;5.95;4.43;;;;;;;;;;2057181;28;20474;-48
2022/05/14 04:10:27;;;;;;;5.47;3.58;;;;;;;;;;2057255;28;20051;-48
2022/05/14 04:11:28;;;;;;;7.93;4.28;;;;;;;;;;2057141;28;20072;-48
2022/05/14 04:12:29;;;;;;;8.10;4.28;;;;;;;;;;2057444;28;20050;-60
2022/05/14 04:13:30;;;;;;;5.03;3.30;;;;;;;;;;2057644;28;20118;-55
2022/05/14 04:14:31;;;;;;;4.93;3.67;;;;;;;;;;2057077;28;20134;-48
2022/05/14 04:15:33;;;;;;;8.23;3.90;;;;;;;;;;2057274;28;20109;-48
2022/05/14 04:16:34;;;;;;;6.05;3.60;;;;;;;;;;2057270;28;20122;-50
2022/05/14 04:17:36;;;;;;;7.55;4.00;;;;;;;;;;2057154;28;20081;-49
2022/05/14 04:18:37;;;;;;;6.75;3.83;;;;;;;;;;2057106;28;20129;-48
2022/05/14 04:19:38;;;;;;;;;;;;;;;;;;2057633;28;20047;-47
2022/05/14 04:20:40;;;;;;;5.85;3.67;;;;;;;;;;2057292;28;20016;-49
2022/05/14 04:21:42;;;;;;;5.80;4.70;;;;;;;;;;2057080;28;20511;-48
2022/05/14 04:22:43;;;;;;;6.15;3.80;;;;;;;;;;2057100;28;20580;-51
2022/05/14 04:23:44;;;;;;;6.38;3.83;;;;;;;;;;2057155;28;20051;-48
2022/05/14 04:24:45;;;;;;;6.63;2.88;;;;;;;;;;2057261;28;20137;-47
2022/05/14 04:25:49;;;;;;;5.93;3.50;;;;;;;;;;2057195;28;20061;-50
2022/05/14 04:26:50;;;;;;;5.22;3.22;;;;;;;;;;2057148;28;20130;-48
2022/05/14 04:27:51;;;;;;;7.78;3.97;;;;;;;;;;2057155;28;20090;-47
2022/05/14 04:28:52;;;;;;;4.07;2.93;;;;;;;;;;2056992;28;20047;-48
2022/05/14 04:29:53;;;;;;;6.93;3.80;;;;;;;;;;2056895;28;20058;-47
2022/05/14 04:30:54;;;;;;;5.00;3.37;;;;;;;;;;2057108;28;20057;-49
2022/05/14 04:31:56;;;;;;;5.72;3.80;;;;;;;;;;2057054;28;20055;-48
2022/05/14 04:32:57;;;;;;;6.97;4.00;;;;;;;;;;2057096;28;20050;-47
2022/05/14 04:33:58;;;;;;;5.25;3.78;;;;;;;;;;2057126;28;20153;-50
2022/05/14 04:34:59;;;;;;;7.37;3.83;;;;;;;;;;2057056;28;20090;-47
2022/05/14 04:36:00;;;;;;;5.88;3.92;;;;;;;;;;2057129;28;20097;-48
2022/05/14 04:37:02;;;;;;;5.10;3.60;;;;;;;;;;2057207;28;20493;-48
2022/05/14 04:38:02;;;;;;;4.82;3.60;;;;;;;;;;2057207;28;20592;-50
2022/05/14 04:39:04;;;;;;;4.30;3.30;;;;;;;;;;2056999;28;20046;-48
2022/05/14 04:40:06;;;;;;;7.82;3.83;;;;;;;;;;2057043;28;20078;-49
2022/05/14 04:41:07;;;;;;;5.03;3.35;;;;;;;;;;2057274;28;20055;-48
2022/05/14 04:42:09;;;;;;;8.32;4.03;;;;;;;;;;2057059;28;20138;-48
2022/05/14 04:43:11;;;;;;;4.40;3.47;;;;;;;;;;2057171;28;20158;-49
2022/05/14 04:44:12;;;;;;;8.27;3.85;;;;;;;;;;2056893;28;20516;-48
2022/05/14 04:45:13;;;;;;;5.10;3.50;;;;;;;;;;2057076;28;20122;-47
2022/05/14 04:46:15;;;;;;;5.82;3.42;;;;;;;;;;2057018;28;20074;-48
2022/05/14 04:47:17;;;;;;;5.15;3.80;;;;;;;;;;2057131;28;20047;-47
2022/05/14 04:48:18;;;;;;;5.38;3.58;;;;;;;;;;2056948;28;20154;-48
2022/05/14 04:49:19;;;;;;;5.18;4.25;;;;;;;;;;2056863;28;20043;-48
2022/05/14 04:50:20;;;;;;;7.17;3.60;;;;;;;;;;2057062;28;20504;-49
2022/05/14 04:51:21;;;;;;;6.88;3.95;;;;;;;;;;2057001;28;20049;-47
2022/05/14 04:52:22;;;;;;;5.43;3.87;;;;;;;;;;2057118;28;20130;-48
2022/05/14 04:53:24;;;;;;;7.22;4.15;;;;;;;;;;2056861;28;20047;-48
2022/05/14 04:54:24;;;;;;;5.22;3.17;;;;;;;;;;2056935;28;20065;-50
2022/05/14 04:55:26;;;;;;;8.03;3.93;;;;;;;;;;2056872;28;20081;-49
2022/05/14 04:56:27;;;;;;;4.50;3.47;;;;;;;;;;2057050;28;20150;-49
2022/05/14 04:57:28;;;;;;;5.00;3.55;;;;;;;;;;2056802;28;20137;-50
2022/05/14 04:58:29;;;;;;;6.40;4.23;;;;;;;;;;2057036;28;20046;-47
2022/05/14 04:59:30;;;;;;;11.05;4.07;;;;;;;;;;2056743;28;20833;-48
2022/05/14 05:00:31;;;;;;;6.53;4.10;;;;;;;;;;2056866;28;20125;-48
2022/05/14 05:01:32;;;;;;;5.75;4.47;;;;;;;;;;2056944;28;20057;-49
2022/05/14 05:03:54;;;;;;;7.13;3.97;;;;;;;;;;2056849;28;20046;-47
2022/05/14 05:04:55;;;;;;;;;;;;;;;;;;2057203;28;20592;-47
2022/05/14 05:05:57;;;;;;;6.88;3.90;;;;;;;;;;2056939;28;20016;-50
2022/05/14 05:06:58;;;;;;;;;;;;;;;;;;2057354;28;20053;-48
2022/05/14 05:07:59;;;;;;;8.90;4.30;;;;;;;;;;2056665;28;20344;-48
2022/05/14 05:09:00;;;;;;;6.40;4.07;;;;;;;;;;2056953;28;20054;-60
2022/05/14 05:10:01;;;;;;;7.07;4.20;;;;;;;;;;2056902;28;20134;-61
2022/05/14 05:11:02;;;;;;;7.67;4.13;;;;;;;;;;2056936;28;20587;-60
2022/05/14 05:12:04;;;;;;;5.85;3.90;;;;;;;;;;2056966;28;20126;-60
2022/05/14 05:13:08;;;;;;;6.38;3.90;;;;;;;;;;2056901;28;20513;-60
2022/05/14 05:14:09;;;;;;;4.88;3.78;;;;;;;;;;2056814;28;20125;-60
2022/05/14 05:15:11;;;;;;;5.97;3.50;;;;;;;;;;2057149;28;20481;-47
2022/05/14 05:16:12;;;;;;;6.20;3.78;;;;;;;;;;2056782;28;20054;-50
2022/05/14 05:17:13;;;;;;;6.47;3.60;;;;;;;;;;2056921;28;20050;-48
2022/05/14 05:18:16;;;;;;;6.37;3.90;;;;;;;;;;2056818;28;20390;-47
2022/05/14 05:19:17;;;;;;;8.55;3.60;;;;;;;;;;2056669;28;20129;-50
2022/05/14 05:20:18;;;;;;;6.27;3.93;;;;;;;;;;2056846;28;20046;-48
2022/05/14 05:21:19;;;;;;;6.45;3.53;;;;;;;;;;2056828;28;20043;-47
2022/05/14 05:22:20;;;;;;;5.13;3.30;;;;;;;;;;2056682;28;20057;-47
2022/05/14 05:23:23;;;;;;;6.17;3.53;;;;;;;;;;2056711;28;20042;-50
2022/05/14 05:24:24;;;;;;;4.93;3.85;;;;;;;;;;2056783;28;20071;-48
2022/05/14 05:25:25;;;;;;;7.70;3.77;;;;;;;;;;2056766;28;20088;-49
2022/05/14 05:26:26;;;;;;;4.93;3.15;;;;;;;;;;2056053;28;20061;-48
2022/05/14 05:27:28;;;;;;;5.20;3.50;;;;;;;;;;2056775;28;20047;-48
2022/05/14 05:28:29;;;;;;;7.93;3.40;;;;;;;;;;2057068;28;20085;-47
2022/05/14 05:29:30;;;;;;;7.78;4.30;;;;;;;;;;2056597;28;20138;-50
2022/05/14 05:30:31;;;;;;;5.73;4.00;;;;;;;;;;2056637;28;20055;-48
2022/05/14 05:31:32;;;;;;;5.90;3.70;;;;;;;;;;2056750;28;20559;-49
2022/05/14 05:32:34;;;;;;;6.05;3.25;;;;;;;;;;2056853;28;20054;-48
2022/05/14 05:33:35;;;;;;;5.43;3.67;;;;;;;;;;2056682;28;20088;-60
2022/05/14 05:34:36;;;;;;;;;;;;;;;;;;2057232;28;20521;-60
2022/05/14 05:35:37;;;;;;;4.22;3.20;;;;;;;;;;2056644;28;20064;-60
2022/05/14 05:36:38;;;;;;;5.22;3.90;;;;;;;;;;2056843;28;20796;-48
2022/05/14 05:37:40;;;;;;;5.10;3.77;;;;;;;;;;2056645;28;20051;-48
2022/05/14 05:38:41;;;;;;;5.63;3.83;;;;;;;;;;2056550;28;20288;-48
2022/05/14 05:39:42;;;;;;;5.17;3.50;;;;;;;;;;2056806;28;20054;-48
2022/05/14 05:40:45;;;;;;;5.25;3.60;;;;;;;;;;2056598;28;20100;-48
2022/05/14 05:41:45;;;;;;;9.68;4.43;;;;;;;;;;2056753;28;20134;-60
2022/05/14 05:42:47;;;;;;;6.53;4.10;;;;;;;;;;2056666;28;20548;-60
2022/05/14 05:43:48;;;;;;;6.63;3.85;;;;;;;;;;2056744;28;20444;-60
2022/05/14 05:44:49;;;;;;;6.75;3.67;;;;;;;;;;2056701;28;20050;-60
2022/05/14 05:45:50;;;;;;;6.00;4.20;;;;;;;;;;2056580;28;20394;-60
2022/05/14 05:46:52;;;;;;;5.68;3.80;;;;;;;;;;2056762;28;20046;-60
2022/05/14 05:47:53;;;;;;;6.38;4.15;;;;;;;;;;2056586;28;20047;-60
2022/05/14 05:48:55;;;;;;;5.72;3.75;;;;;;;;;;2056663;28;20129;-60
2022/05/14 05:49:55;;;;;;;;;;;;;;;;;;2056817;28;20053;-60
2022/05/14 05:51:00;;;;;;;5.30;3.90;;;;;;;;;;2056681;28;19922;-60
2022/05/14 05:52:01;;;;;;;6.63;3.80;;;;;;;;;;2056754;28;20473;-60
2022/05/14 05:53:02;;;;;;;5.10;3.57;;;;;;;;;;2056745;28;20055;-60
2022/05/14 05:56:47;;;;;;;4.72;3.30;;;;;;;;;;2039497;29;20110;-60
2022/05/14 05:57:48;;;;;;;4.53;3.70;;;;;;;;;;2056594;28;20177;-60
2022/05/14 05:58:49;;;;;;;4.40;3.78;;;;;;;;;;2056455;28;20382;-60
2022/05/14 05:59:51;;;;;;;5.82;3.80;;;;;;;;;;2056512;28;20422;-59
2022/05/14 06:00:52;;;;;;;5.18;3.53;;;;;;;;;;2056482;28;20130;-60
2022/05/14 06:01:53;;;;;;;5.75;3.50;;;;;;;;;;2056523;28;20099;-60
2022/05/14 06:02:55;;;;;;;5.97;3.58;;;;;;;;;;2056517;28;20101;-60
2022/05/14 06:03:57;;;;;;;5.00;3.50;;;;;;;;;;2058718;28;20194;-60
2022/05/14 06:04:58;;;;;;;7.78;3.58;;;;;;;;;;2064463;28;20137;-60
2022/05/14 06:05:59;;;;;;;4.63;3.55;;;;;;;;;;2064670;28;20080;-60
2022/05/14 06:07:00;;;;;;;5.57;4.07;;;;;;;;;;2064701;28;20077;-60
2022/05/14 06:08:05;;;;;;;4.47;3.50;;;;;;;;;;2064517;28;20133;-60
2022/05/14 06:09:07;;;;;;;6.38;3.47;;;;;;;;;;2064780;28;20050;-49
2022/05/14 06:10:10;;;;;;;5.78;3.50;;;;;;;;;;2064435;28;20126;-47
2022/05/14 06:11:11;;;;;;;8.70;3.85;;;;;;;;;;2064642;28;20088;-47
2022/05/14 06:12:12;;;;;;;5.25;3.95;;;;;;;;;;2064534;28;20048;-47
2022/05/14 06:13:14;;;;;;;5.20;3.58;;;;;;;;;;2064659;28;20133;-47
2022/05/14 06:14:16;;;;;;;5.18;3.28;;;;;;;;;;2064544;28;20133;-47
2022/05/14 06:15:18;;;;;;;6.30;3.30;;;;;;;;;;2064524;28;20129;-47
2022/05/14 06:16:24;;;;;;;6.75;3.60;;;;;;;;;;2064433;28;20103;-47
2022/05/14 06:17:25;;;;;;;4.55;3.15;;;;;;;;;;2064494;28;20503;-49
2022/05/14 06:18:26;;;;;;;5.38;3.40;;;;;;;;;;2063643;28;20097;-47
2022/05/14 06:19:28;;;;;;;6.53;4.03;;;;;;;;;;2056368;28;20517;-47
2022/05/14 06:20:29;;;;;;;;;;;;;;;;;;2056881;28;20042;-48
2022/05/14 06:21:36;;;;;;;6.28;3.28;;;;;;;;;;2056661;28;19994;-47